Time;durP1;ratioP1;P1;durP2;ratioP2;P2;SDS_P1;SDS_P2;PMS_P1;PMS_P2;Temp;Humidity;BMP_temperature;BMP_pressure;BME280_temperature;BME280_humidity;BME280_pressure;Samples;Min_cycle;Max_cycle;Signal;HPM_P1;HPM_P2
2021/04/18 02:53:32;;;;;;;10.04;7.22;;;;;;;5.83;73.92;99961.30;367941;142;881622;-61
2021/04/18 02:54:34;;;;;;;11.27;7.07;;;;;;;5.87;73.62;99965.63;363361;145;857623;-59
2021/04/18 02:55:36;;;;;;;9.55;6.49;;;;;;;6.03;73.21;99973.55;361832;147;857256;-60
2021/04/18 02:56:40;;;;;;;9.18;6.62;;;;;;;6.12;72.70;99963.36;364953;146;857341;-61
2021/04/18 02:57:41;;;;;;;9.56;7.01;;;;;;;6.14;71.78;99962.55;365709;145;857351;-61
2021/04/18 02:58:43;;;;;;;9.59;6.95;;;;;;;6.18;71.74;99966.00;363128;147;865160;-61
2021/04/18 02:59:45;;;;;;;9.26;6.65;;;;;;;6.25;71.75;99956.66;363751;146;865062;-61
2021/04/18 03:00:47;;;;;;;8.91;6.59;;;;;;;6.25;71.25;99960.06;363464;147;865437;-61
2021/04/18 03:01:48;;;;;;;12.90;6.21;;;;;;;6.28;71.60;99965.23;364073;145;867217;-61
2021/04/18 03:02:51;;;;;;;8.35;6.44;;;;;;;6.37;71.58;99961.91;364268;146;866940;-61
2021/04/18 03:03:53;;;;;;;8.99;6.68;;;;;;;6.39;71.13;99954.23;361899;148;864989;-60
2021/04/18 03:04:57;;;;;;;7.93;5.81;;;;;;;6.40;70.54;99961.94;358760;150;858514;-61
2021/04/18 03:05:58;;;;;;;9.48;6.86;;;;;;;6.44;70.98;99955.13;360018;148;865185;-61
2021/04/18 03:07:00;;;;;;;12.23;6.44;;;;;;;6.46;70.69;99958.58;359521;149;866140;-61
2021/04/18 03:08:02;;;;;;;9.15;6.58;;;;;;;6.41;70.91;99952.53;359345;149;857332;-61
2021/04/18 03:09:04;;;;;;;11.65;6.43;;;;;;;6.50;71.12;99952.61;359079;148;858034;-61
2021/04/18 03:10:08;;;;;;;7.83;6.03;;;;;;;6.59;70.73;99956.95;360230;149;857781;-61
2021/04/18 03:11:10;;;;;;;8.32;6.55;;;;;;;6.63;70.18;99956.13;358313;148;859478;-61
2021/04/18 03:12:12;;;;;;;9.37;6.17;;;;;;;6.61;69.99;99962.13;359504;148;857309;-61
2021/04/18 03:13:14;;;;;;;9.35;6.70;;;;;;;6.68;70.35;99961.33;361458;149;858941;-61
2021/04/18 03:14:15;;;;;;;8.64;5.96;;;;;;;6.69;69.87;99958.75;359157;148;858475;-61
2021/04/18 03:15:17;;;;;;;9.26;7.18;;;;;;;6.76;70.12;99959.68;358872;150;865140;-61
2021/04/18 03:16:21;;;;;;;9.46;6.98;;;;;;;6.86;70.21;99955.45;358048;148;865121;-61
2021/04/18 03:17:23;;;;;;;9.42;7.25;;;;;;;6.89;69.33;99954.63;360258;148;862636;-61
2021/04/18 03:18:25;;;;;;;9.34;6.83;;;;;;;6.79;69.57;99954.55;360741;148;865134;-61
2021/04/18 03:19:27;;;;;;;11.48;7.56;;;;;;;;;;358513;148;865212;-61
2021/04/18 03:20:29;;;;;;;10.16;7.34;;;;;;;;;;361850;148;865414;-60
2021/04/18 03:21:31;;;;;;;14.27;7.97;;;;;;;;;;359397;148;859787;-61
2021/04/18 03:22:32;;;;;;;9.90;7.08;;;;;;;;;;352201;151;857216;-61
2021/04/18 03:23:34;;;;;;;12.57;8.35;;;;;;;;;;358685;150;860399;-61
2021/04/18 03:24:39;;;;;;;12.61;8.29;;;;;;;;;;358745;148;859023;-61
2021/04/18 03:25:39;;;;;;;11.66;8.16;;;;;;;;;;355868;148;865921;-61
2021/04/18 03:26:41;;;;;;;12.61;8.92;;;;;;;;;;356006;151;859274;-61
2021/04/18 03:27:42;;;;;;;12.56;8.72;;;;;;;;;;358528;149;857972;-61
2021/04/18 03:28:44;;;;;;;12.95;8.01;;;;;;;;;;358450;148;857597;-61
2021/04/18 03:29:45;;;;;;;14.25;8.28;;;;;;;;;;355780;150;857404;-61
2021/04/18 03:30:47;;;;;;;11.56;8.29;;;;;;;;;;355973;148;859201;-61
2021/04/18 03:31:48;;;;;;;12.85;8.50;;;;;;;;;;360245;148;859366;-61
2021/04/18 03:32:50;;;;;;;13.41;8.44;;;;;;;;;;359173;149;860842;-61
2021/04/18 03:33:51;;;;;;;13.67;8.53;;;;;;;;;;353033;150;857411;-61
2021/04/18 03:34:53;;;;;;;12.59;8.21;;;;;;;;;;352068;151;857616;-61
2021/04/18 03:35:55;;;;;;;12.57;8.34;;;;;;;;;;358994;148;859306;-61
2021/04/18 03:36:56;;;;;;;13.74;9.00;;;;;;;;;;360008;148;866067;-61
2021/04/18 03:37:58;;;;;;;13.61;8.91;;;;;;;;;;359044;150;860082;-61
2021/04/18 03:39:00;;;;;;;16.37;9.13;;;;;;;;;;358890;149;865014;-61
2021/04/18 03:40:02;;;;;;;13.12;8.45;;;;;;;;;;359354;148;864979;-61
2021/04/18 03:41:04;;;;;;;14.30;9.26;;;;;;;;;;356538;150;866578;-60
2021/04/18 03:42:06;;;;;;;14.53;9.05;;;;;;;;;;358633;149;858015;-60
2021/04/18 03:43:07;;;;;;;13.59;9.21;;;;;;;;;;357177;148;857348;-60
2021/04/18 03:44:09;;;;;;;13.10;8.36;;;;;;;;;;355386;150;857977;-60
2021/04/18 03:45:12;;;;;;;10.69;7.18;;;;;;;;;;358969;148;857533;-60
2021/04/18 03:46:13;;;;;;;16.11;8.56;;;;;;;;;;359380;150;859237;-59
2021/04/18 03:47:15;;;;;;;13.74;8.81;;;;;;;;;;357152;148;859641;-60
2021/04/18 03:48:16;;;;;;;12.88;8.49;;;;;;;;;;358445;148;860180;-60
2021/04/18 03:49:18;;;;;;;12.81;8.71;;;;;;;;;;360575;148;857377;-60
2021/04/18 03:50:20;;;;;;;13.26;8.72;;;;;;;;;;359118;150;857742;-60
2021/04/18 03:51:21;;;;;;;13.49;9.16;;;;;;;;;;359124;147;861292;-60
2021/04/18 03:52:23;;;;;;;14.01;9.17;;;;;;;;;;359378;150;858106;-60
2021/04/18 03:53:25;;;;;;;12.58;8.69;;;;;;;;;;357094;149;857569;-60
2021/04/18 03:54:27;;;;;;;16.53;9.59;;;;;;;;;;352521;151;857402;-60
2021/04/18 03:55:28;;;;;;;14.00;8.94;;;;;;;;;;352412;152;866827;-60
2021/04/18 03:56:30;;;;;;;14.91;9.87;;;;;;;;;;351712;151;857984;-60
2021/04/18 03:57:32;;;;;;;15.93;9.82;;;;;;;;;;352955;151;857035;-60
2021/04/18 03:58:35;;;;;;;13.60;8.83;;;;;;;;;;354782;151;856334;-60
2021/04/18 03:59:37;;;;;;;14.83;9.34;;;;;;;;;;352280;151;856601;-61
2021/04/18 04:00:39;;;;;;;13.87;8.87;;;;;;;;;;352106;151;856130;-61
2021/04/18 04:01:40;;;;;;;15.83;8.24;;;;;;;;;;352077;153;856061;-60
2021/04/18 04:02:42;;;;;;;13.54;8.40;;;;;;;;;;353083;150;856298;-61
2021/04/18 04:05:28;;;;;;;11.77;7.93;;;;;;;6.22;73.38;99954.89;373320;141;883841;-61
2021/04/18 04:06:30;;;;;;;10.79;6.37;;;;;;;6.17;73.54;99960.85;366933;144;858216;-61
2021/04/18 04:07:32;;;;;;;9.33;6.41;;;;;;;6.21;73.48;99954.90;370302;144;857461;-61
2021/04/18 04:08:34;;;;;;;8.59;6.11;;;;;;;6.28;73.33;99956.68;366662;144;860656;-61
2021/04/18 04:09:36;;;;;;;8.41;5.61;;;;;;;6.35;72.94;99955.02;366057;144;857732;-61
2021/04/18 04:10:39;;;;;;;9.36;6.03;;;;;;;6.40;72.50;99953.38;369921;144;864883;-61
2021/04/18 04:11:41;;;;;;;8.35;5.63;;;;;;;6.46;72.50;99961.15;366147;144;857760;-61
2021/04/18 04:12:43;;;;;;;8.77;6.17;;;;;;;6.53;72.20;99957.78;366069;144;859031;-61
2021/04/18 04:13:45;;;;;;;8.59;6.19;;;;;;;6.65;72.09;99953.59;368906;144;858080;-61
2021/04/18 04:14:46;;;;;;;9.03;5.73;;;;;;;6.77;71.87;99953.68;366037;147;865958;-61
2021/04/18 04:15:48;;;;;;;8.31;6.01;;;;;;;;;;366141;144;858877;-61
2021/04/18 04:16:50;;;;;;;12.21;6.86;;;;;;;;;;368292;144;866838;-61
2021/04/18 04:17:52;;;;;;;8.61;5.59;;;;;;;;;;366361;144;859345;-61
2021/04/18 04:18:53;;;;;;;10.49;6.71;;;;;;;;;;367821;144;857425;-61
2021/04/18 04:19:55;;;;;;;11.89;7.11;;;;;;;;;;369830;144;865023;-61
2021/04/18 04:20:56;;;;;;;10.72;7.12;;;;;;;;;;368968;144;864997;-61
2021/04/18 04:21:58;;;;;;;10.63;7.17;;;;;;;;;;371170;144;864990;-61
2021/04/18 04:22:59;;;;;;;12.29;7.46;;;;;;;;;;365855;144;867230;-61
2021/04/18 04:24:01;;;;;;;11.19;7.79;;;;;;;;;;367995;144;865892;-61
2021/04/18 04:25:03;;;;;;;12.87;8.53;;;;;;;;;;370085;144;865924;-61
2021/04/18 04:26:05;;;;;;;14.19;8.47;;;;;;;;;;366650;144;865043;-61
2021/04/18 04:27:07;;;;;;;11.16;7.81;;;;;;;;;;365929;147;859131;-61
2021/04/18 04:28:09;;;;;;;10.78;7.62;;;;;;;;;;366352;144;858648;-61
2021/04/18 04:29:11;;;;;;;12.06;7.82;;;;;;;;;;365841;147;857272;-61
2021/04/18 04:30:13;;;;;;;15.66;8.19;;;;;;;;;;368451;144;865747;-61
2021/04/18 04:31:14;;;;;;;12.90;8.42;;;;;;;;;;368494;144;857962;-61
2021/04/18 04:32:16;;;;;;;11.36;7.64;;;;;;;;;;366052;147;859890;-61
2021/04/18 04:33:18;;;;;;;13.36;8.41;;;;;;;;;;367018;144;857394;-61
2021/04/18 04:34:19;;;;;;;13.02;8.66;;;;;;;;;;367378;144;866796;-62
2021/04/18 04:35:21;;;;;;;13.93;8.70;;;;;;;;;;372363;144;866743;-61
2021/04/18 04:36:23;;;;;;;13.13;8.31;;;;;;;;;;368803;144;865911;-60
2021/04/18 04:37:24;;;;;;;12.69;8.71;;;;;;;;;;366012;144;858966;-60
2021/04/18 04:38:26;;;;;;;13.88;9.11;;;;;;;;;;366003;147;866158;-60
2021/04/18 04:39:28;;;;;;;14.79;9.32;;;;;;;;;;367304;144;858153;-60
2021/04/18 04:40:30;;;;;;;13.73;8.91;;;;;;;;;;366270;144;865028;-60
2021/04/18 04:41:32;;;;;;;14.24;9.04;;;;;;;;;;366943;144;865131;-60
2021/04/18 04:42:34;;;;;;;14.58;8.60;;;;;;;;;;368099;144;859119;-60
2021/04/18 04:43:35;;;;;;;14.50;9.49;;;;;;;;;;367773;144;858053;-60
2021/04/18 04:44:37;;;;;;;13.43;9.26;;;;;;;;;;366233;144;859099;-60
2021/04/18 04:45:39;;;;;;;12.05;8.60;;;;;;;;;;367617;144;865074;-63
2021/04/18 04:46:41;;;;;;;15.43;8.91;;;;;;;;;;367231;144;858006;-60
2021/04/18 04:47:42;;;;;;;15.96;8.47;;;;;;;;;;367808;144;857672;-60
2021/04/18 04:48:44;;;;;;;15.90;9.36;;;;;;;;;;368607;144;859192;-61
2021/04/18 04:49:46;;;;;;;14.79;9.21;;;;;;;;;;365869;144;857997;-61
2021/04/18 04:50:48;;;;;;;14.19;8.79;;;;;;;;;;366221;144;865728;-61
2021/04/18 04:51:49;;;;;;;14.44;8.72;;;;;;;;;;366008;147;865578;-61
2021/04/18 04:52:52;;;;;;;14.25;8.87;;;;;;;;;;368131;144;865076;-60
2021/04/18 04:53:54;;;;;;;15.74;9.11;;;;;;;;;;366976;144;857335;-61
2021/04/18 04:54:56;;;;;;;13.09;8.14;;;;;;;;;;371666;144;857370;-60
2021/04/18 04:55:57;;;;;;;13.84;8.86;;;;;;;;;;369043;144;865200;-60
2021/04/18 04:56:59;;;;;;;14.24;8.82;;;;;;;;;;369004;144;860122;-61
2021/04/18 04:58:00;;;;;;;15.36;9.64;;;;;;;;;;368681;144;857601;-61
2021/04/18 04:59:02;;;;;;;14.61;8.93;;;;;;;;;;365824;144;864911;-61
2021/04/18 05:00:04;;;;;;;15.09;8.53;;;;;;;;;;366315;144;857539;-61
2021/04/18 05:01:06;;;;;;;15.28;8.93;;;;;;;;;;369770;144;866277;-60
2021/04/18 05:02:07;;;;;;;13.84;8.64;;;;;;;;;;366279;144;859080;-61
2021/04/18 05:03:09;;;;;;;15.19;9.64;;;;;;;;;;365931;147;865640;-61
2021/04/18 05:04:11;;;;;;;14.34;9.22;;;;;;;;;;365906;144;858772;-61
2021/04/18 05:05:13;;;;;;;14.65;9.14;;;;;;;;;;364971;144;857371;-60
2021/04/18 05:06:14;;;;;;;13.85;8.99;;;;;;;;;;366591;144;857564;-61
2021/04/18 05:07:17;;;;;;;12.31;8.31;;;;;;;;;;362888;144;858669;-61
2021/04/18 05:08:19;;;;;;;12.50;8.59;;;;;;;;;;363748;146;857281;-61
2021/04/18 05:09:21;;;;;;;9.99;6.71;;;;;;;;;;363995;146;857864;-61
2021/04/18 05:10:22;;;;;;;11.67;7.89;;;;;;;;;;362846;145;859462;-61
2021/04/18 05:11:24;;;;;;;12.97;8.37;;;;;;;;;;363147;145;857988;-61
2021/04/18 05:12:26;;;;;;;13.58;8.32;;;;;;;;;;362625;145;865531;-60
2021/04/18 05:13:27;;;;;;;12.20;7.95;;;;;;;;;;364801;145;860487;-61
2021/04/18 05:14:29;;;;;;;13.67;8.97;;;;;;;;;;367325;146;857359;-61
2021/04/18 05:15:30;;;;;;;12.52;8.33;;;;;;;;;;364731;145;857471;-61
2021/04/18 05:16:32;;;;;;;15.13;8.78;;;;;;;;;;363763;144;857506;-61
2021/04/18 05:17:34;;;;;;;13.66;8.85;;;;;;;;;;362863;147;859875;-61
2021/04/18 05:18:35;;;;;;;14.24;8.25;;;;;;;;;;362650;145;857388;-61
2021/04/18 05:19:37;;;;;;;13.65;9.04;;;;;;;;;;363055;145;857530;-61
2021/04/18 05:20:40;;;;;;;15.03;10.13;;;;;;;;;;366544;146;857401;-61
2021/04/18 05:21:41;;;;;;;14.34;9.95;;;;;;;;;;361783;146;865078;-61
2021/04/18 05:22:43;;;;;;;15.18;10.52;;;;;;;;;;362291;148;866711;-61
2021/04/18 05:23:45;;;;;;;16.93;10.33;;;;;;;;;;362976;146;861250;-61
2021/04/18 05:24:46;;;;;;;12.39;8.53;;;;;;;;;;365642;145;858652;-61
2021/04/18 05:25:48;;;;;;;13.68;9.31;;;;;;;;;;362522;146;857885;-61
2021/04/18 05:26:50;;;;;;;13.64;9.33;;;;;;;;;;366276;145;865120;-61
2021/04/18 05:27:51;;;;;;;13.25;8.93;;;;;;;;;;363609;144;866636;-61
2021/04/18 05:28:53;;;;;;;14.28;9.44;;;;;;;;;;364736;146;858953;-61
2021/04/18 05:29:55;;;;;;;15.79;9.99;;;;;;;;;;363006;144;858662;-61
2021/04/18 05:30:57;;;;;;;16.20;9.26;;;;;;;;;;362797;144;857359;-61
2021/04/18 05:31:59;;;;;;;14.35;8.71;;;;;;;;;;364932;145;865030;-61
2021/04/18 05:33:00;;;;;;;14.97;9.69;;;;;;;;;;363574;144;865121;-61
2021/04/18 05:34:02;;;;;;;15.59;9.53;;;;;;;;;;364619;144;865053;-61
2021/04/18 05:35:04;;;;;;;14.21;8.94;;;;;;;;;;363578;146;867243;-61
2021/04/18 05:36:06;;;;;;;16.41;10.33;;;;;;;;;;363984;145;858267;-62
2021/04/18 05:37:08;;;;;;;13.11;9.30;;;;;;;;;;363451;146;865827;-62
2021/04/18 05:38:09;;;;;;;15.91;9.26;;;;;;;;;;363841;145;866766;-62
2021/04/18 05:39:11;;;;;;;14.84;10.03;;;;;;;;;;363168;146;866878;-62
2021/04/18 05:40:13;;;;;;;13.73;9.01;;;;;;;;;;363869;144;858626;-62
2021/04/18 05:41:14;;;;;;;14.06;9.41;;;;;;;;;;363371;145;865938;-61
2021/04/18 05:42:16;;;;;;;13.15;8.33;;;;;;;;;;363010;144;864931;-61
2021/04/18 05:43:18;;;;;;;12.66;8.60;;;;;;;;;;363757;146;865178;-61
2021/04/18 05:44:19;;;;;;;12.33;7.90;;;;;;;;;;363090;145;862275;-61
2021/04/18 05:45:21;;;;;;;12.90;8.90;;;;;;;;;;363403;146;860944;-61
2021/04/18 05:46:23;;;;;;;13.21;8.02;;;;;;;;;;364125;146;865655;-62
2021/04/18 05:47:24;;;;;;;13.51;8.81;;;;;;;;;;364368;145;857353;-61
2021/04/18 05:48:26;;;;;;;13.42;8.51;;;;;;;;;;364796;146;864929;-61
2021/04/18 06:05:45;;;;;;;13.13;8.18;;;;;;;7.31;72.50;99897.38;374346;142;881307;-61
2021/04/18 06:06:47;;;;;;;11.29;7.23;;;;;;;7.27;72.58;99897.34;364849;145;859475;-61
2021/04/18 06:07:48;;;;;;;10.17;7.14;;;;;;;7.34;72.82;99895.67;363940;146;857237;-61
2021/04/18 06:08:50;;;;;;;9.14;6.26;;;;;;;7.40;72.61;99886.23;361944;146;864974;-61
2021/04/18 06:09:52;;;;;;;11.40;7.10;;;;;;;7.40;72.61;99886.23;362806;148;865051;-61
2021/04/18 06:10:54;;;;;;;13.68;6.37;;;;;;;7.45;71.91;99889.72;363122;144;857441;-61
2021/04/18 06:11:56;;;;;;;8.29;6.18;;;;;;;7.55;72.17;99893.18;363500;145;857265;-61
2021/04/18 06:12:58;;;;;;;9.78;5.78;;;;;;;7.70;72.09;99892.38;366952;144;864981;-61
2021/04/18 06:14:00;;;;;;;10.24;6.23;;;;;;;7.75;71.60;99889.80;362133;145;859618;-61
2021/04/18 06:15:02;;;;;;;7.00;5.16;;;;;;;7.92;71.63;99891.55;363922;146;857750;-61
2021/04/18 06:16:05;;;;;;;9.57;5.93;;;;;;;8.07;71.13;99890.73;364895;147;857293;-61
2021/04/18 06:17:11;;;;;;;8.58;5.87;;;;;;;8.17;70.17;99888.19;362084;145;865708;-61
2021/04/18 06:18:13;;;;;;;8.89;5.98;;;;;;;8.31;70.14;99887.33;360102;147;857230;-60
2021/04/18 06:19:16;;;;;;;8.62;5.98;;;;;;;8.27;69.43;99890.77;359115;146;857221;-60
2021/04/18 06:20:18;;;;;;;8.71;6.08;;;;;;;8.40;69.42;99887.33;362585;145;865509;-60
2021/04/18 06:21:20;;;;;;;8.32;6.15;;;;;;;8.45;68.88;99889.89;362793;147;857325;-61
2021/04/18 06:22:22;;;;;;;10.16;6.78;;;;;;;8.59;68.96;99890.81;363918;144;865084;-61
2021/04/18 06:23:23;;;;;;;9.15;6.41;;;;;;;8.68;68.48;99891.66;360441;145;857315;-60
2021/04/18 06:24:25;;;;;;;9.20;6.76;;;;;;;8.69;67.95;99886.48;358514;147;864930;-61
2021/04/18 06:45:13;;;;;;;12.32;8.01;;;;;;;8.70;67.88;99883.03;371456;142;882686;-61
2021/04/18 06:46:20;;;;;;;11.23;7.21;;;;;;;8.46;68.66;99882.16;362604;145;857656;-61
2021/04/18 06:47:24;;;;;;;12.81;8.04;;;;;;;8.27;68.45;99883.88;363552;144;857316;-62
2021/04/18 06:48:26;;;;;;;9.54;6.71;;;;;;;8.24;68.61;99873.55;363324;145;857318;-62
2021/04/18 06:49:28;;;;;;;11.26;7.39;;;;;;;8.17;68.95;99880.45;365146;145;859592;-61
2021/04/18 06:50:31;;;;;;;9.16;6.17;;;;;;;8.15;69.03;99881.28;365832;145;858209;-61
2021/04/18 06:51:35;;;;;;;11.19;7.38;;;;;;;7.98;69.28;99878.70;364277;145;860211;-61
2021/04/18 06:52:37;;;;;;;11.02;8.40;;;;;;;8.01;69.49;99876.13;357813;148;857688;-61
2021/04/18 06:53:38;;;;;;;12.09;7.99;;;;;;;8.00;69.35;99879.57;346260;151;865007;-61
2021/04/18 06:54:41;;;;;;;11.08;7.79;;;;;;;7.97;69.51;99874.41;356785;148;857288;-69
2021/04/18 06:55:43;;;;;;;15.95;9.55;;;;;;;8.00;70.71;99889.88;351790;151;864991;-68
2021/04/18 06:56:46;;;;;;;17.05;7.05;;;;;;;8.12;70.56;99902.79;365230;145;856336;-64
2021/04/18 06:57:48;;;;;;;11.76;6.84;;;;;;;8.19;69.92;99903.64;364405;145;864076;-62
2021/04/18 06:58:50;;;;;;;12.03;6.76;;;;;;;8.09;70.30;99902.78;366446;145;856224;-62
2021/04/18 06:59:51;;;;;;;10.50;6.00;;;;;;;8.07;69.86;99899.34;365868;145;864912;-62
2021/04/18 07:00:54;;;;;;;8.71;6.13;;;;;;;8.10;70.25;99904.51;364173;145;863820;-65
2021/04/18 07:01:56;;;;;;;10.37;6.25;;;;;;;8.11;69.74;99895.04;364514;145;856382;-67
2021/04/18 07:03:10;;;;;;;8.89;6.33;;;;;;;8.12;70.39;99894.18;363056;145;856233;-68
2021/04/18 07:04:18;;;;;;;8.36;5.79;;;;;;;8.28;70.04;99898.48;350096;148;856110;-67
2021/04/18 07:05:22;;;;;;;8.01;5.19;;;;;;;8.34;68.68;99895.91;358824;147;856571;-68
2021/04/18 07:06:39;;;;;;;9.77;5.62;;;;;;;8.26;69.15;99901.95;358484;147;856721;-67
2021/04/18 07:07:44;;;;;;;9.32;6.66;;;;;;;8.42;68.75;99898.51;359509;148;856202;-67
2021/04/18 07:14:35;;;;;;;9.59;6.52;;;;;;;8.66;68.06;99895.97;370998;141;881265;-60
2021/04/18 07:19:02;;;;;;;13.55;7.35;;;;;;;8.27;68.88;99896.77;374414;141;879591;-60
2021/04/18 07:20:14;;;;;;;10.61;7.13;;;;;;;8.00;69.38;99902.77;365936;144;856574;-61
2021/04/18 07:21:16;;;;;;;11.02;7.14;;;;;;;7.86;69.91;99895.00;366581;144;857049;-62
2021/04/18 07:22:24;;;;;;;13.35;7.83;;;;;;;7.73;70.49;99894.97;368387;144;857122;-59
2021/04/18 07:23:30;;;;;;;8.81;6.43;;;;;;;7.69;70.65;99894.94;363683;144;856303;-61
2021/04/18 07:24:33;;;;;;;9.78;5.61;;;;;;;7.59;71.16;99889.76;362530;146;856068;-62
2021/04/18 07:25:35;;;;;;;9.78;6.17;;;;;;;7.63;71.38;99889.77;360210;146;856159;-70
2021/04/18 07:26:38;;;;;;;8.14;5.17;;;;;;;7.52;71.47;99887.17;362175;146;856176;-64
2021/04/18 07:27:47;;;;;;;8.59;4.91;;;;;;;7.55;71.46;99885.45;341124;150;856365;-61
2021/04/18 07:28:50;;;;;;;6.94;4.87;;;;;;;7.70;71.29;99886.35;345726;153;856648;-64
2021/04/18 07:29:59;;;;;;;7.75;5.18;;;;;;;7.79;71.19;99882.95;341801;154;856449;-63
2021/04/18 07:31:02;;;;;;;6.33;4.91;;;;;;;7.95;70.54;99884.70;345362;154;856275;-60
2021/04/18 07:32:24;;;;;;;8.41;5.01;;;;;;;8.12;70.46;99884.74;344703;154;857115;-62
2021/04/18 07:33:25;;;;;;;7.21;5.09;;;;;;;8.28;69.61;99874.44;342419;154;856274;-60
2021/04/18 07:34:36;;;;;;;6.31;4.55;;;;;;;8.12;69.37;99879.58;343405;154;856227;-60
2021/04/18 07:35:39;;;;;;;7.78;5.44;;;;;;;8.45;68.87;99876.99;344180;153;856930;-61
2021/04/18 07:36:43;;;;;;;8.11;5.67;;;;;;;8.61;68.13;99891.67;344228;154;856214;-61
2021/04/18 07:37:45;;;;;;;6.75;5.58;;;;;;;8.72;67.77;99886.47;343575;154;856624;-61
2021/04/18 07:38:50;;;;;;;8.42;6.04;;;;;;;8.70;67.81;99882.19;344838;154;856875;-61
2021/04/18 07:40:00;;;;;;;9.26;5.93;;;;;;;8.88;67.83;99877.00;343899;154;856193;-63
2021/04/18 07:41:16;;;;;;;9.09;6.09;;;;;;;8.69;68.27;99876.16;342516;154;856805;-62
2021/04/18 07:42:40;;;;;;;9.04;5.59;;;;;;;8.49;68.05;99871.03;344982;154;856271;-61
2021/04/18 07:43:45;;;;;;;9.36;6.42;;;;;;;8.59;68.10;99877.91;344518;154;856332;-60
2021/04/18 07:44:46;;;;;;;7.73;5.47;;;;;;;8.60;67.91;99871.87;345966;154;856170;-61
2021/04/18 07:45:49;;;;;;;10.61;6.66;;;;;;;8.43;68.23;99869.27;345354;154;856653;-61
2021/04/18 07:46:52;;;;;;;9.67;6.19;;;;;;;8.51;68.34;99876.17;342845;154;863912;-62
2021/04/18 07:47:54;;;;;;;10.57;7.09;;;;;;;8.59;67.99;99882.19;345492;154;856602;-64
2021/04/18 07:48:55;;;;;;;8.58;6.39;;;;;;;8.61;67.75;99881.34;343680;154;856817;-62
2021/04/18 07:49:57;;;;;;;10.75;6.74;;;;;;;8.68;68.04;99878.75;343426;154;864385;-62
2021/04/18 07:52:56;;;;;;;10.06;6.91;;;;;;;8.72;67.93;99876.15;369246;142;880379;-65
2021/04/18 07:53:58;;;;;;;10.48;7.33;;;;;;;8.64;67.94;99883.05;363183;146;858081;-60
2021/04/18 07:55:00;;;;;;;10.94;7.28;;;;;;;8.65;68.00;99886.50;362153;146;857185;-61
2021/04/18 07:56:02;;;;;;;12.87;8.35;;;;;;;8.67;68.14;99874.45;363777;146;858341;-59
2021/04/18 07:57:04;;;;;;;11.55;7.25;;;;;;;8.57;68.57;99891.66;361648;146;856177;-59
2021/04/18 07:58:06;;;;;;;13.53;7.79;;;;;;;8.46;69.33;99886.45;348663;146;857097;-61
2021/04/18 07:59:08;;;;;;;10.81;7.70;;;;;;;8.41;69.20;99883.89;337859;157;856871;-58
2021/04/18 08:00:11;;;;;;;12.19;7.45;;;;;;;8.47;68.93;99885.59;336218;155;864008;-58
2021/04/18 08:01:13;;;;;;;13.42;7.31;;;;;;;8.47;69.02;99888.17;337489;157;856732;-59
2021/04/18 08:02:17;;;;;;;12.98;7.97;;;;;;;8.43;69.17;99889.03;336588;156;856413;-58
2021/04/18 08:03:19;;;;;;;14.18;8.01;;;;;;;8.42;69.42;99882.16;335178;156;864305;-58
2021/04/18 08:04:21;;;;;;;12.39;7.61;;;;;;;8.42;69.54;99885.61;330256;160;864020;-57
2021/04/18 08:05:25;;;;;;;12.63;8.01;;;;;;;8.46;69.24;99886.45;333978;161;856280;-56
2021/04/18 08:06:28;;;;;;;11.41;7.38;;;;;;;8.52;69.07;99891.67;328980;160;856709;-58
2021/04/18 08:07:30;;;;;;;13.03;8.43;;;;;;;8.53;69.09;99890.81;329037;161;856275;-58
2021/04/18 08:08:49;;;;;;;11.21;7.79;;;;;;;8.59;68.95;99889.94;329218;161;857600;-58
2021/04/18 08:10:24;;;;;;;9.70;7.53;;;;;;;8.56;68.51;99888.23;328564;161;856709;-58
2021/04/18 08:11:25;;;;;;;11.24;7.73;;;;;;;8.56;68.65;99887.35;327913;161;857228;-59
2021/04/18 08:12:27;;;;;;;11.13;7.09;;;;;;;8.55;69.01;147828.59;328504;160;856702;-58
2021/04/18 08:13:31;;;;;;;11.16;7.59;;;;;;;;;;330321;161;856122;-58
2021/04/18 08:14:33;;;;;;;14.13;7.92;;;;;;;;;;327618;160;856123;-60
2021/04/18 08:15:36;;;;;;;10.68;7.61;;;;;;;;;;329187;160;856744;-58
2021/04/18 08:16:38;;;;;;;13.94;8.36;;;;;;;;;;332322;161;856235;-59
2021/04/18 08:17:58;;;;;;;12.51;8.24;;;;;;;;;;327789;161;857688;-61
2021/04/18 08:19:06;;;;;;;11.86;7.76;;;;;;;;;;328051;161;863919;-59
2021/04/18 08:20:08;;;;;;;12.93;7.91;;;;;;;;;;329938;161;856796;-59
2021/04/18 08:21:26;;;;;;;12.00;7.91;;;;;;;;;;328955;161;856390;-59
2021/04/18 08:22:42;;;;;;;14.21;8.38;;;;;;;;;;327598;161;856679;-57
2021/04/18 08:23:44;;;;;;;16.18;8.41;;;;;;;;;;326529;160;856815;-57
2021/04/18 08:24:45;;;;;;;14.89;8.47;;;;;;;;;;329497;161;856759;-59
2021/04/18 08:26:08;;;;;;;15.76;8.01;;;;;;;;;;331073;160;864028;-55
2021/04/18 08:27:11;;;;;;;14.96;8.70;;;;;;;;;;328110;161;858904;-57
2021/04/18 08:28:14;;;;;;;15.85;8.86;;;;;;;;;;328736;161;856404;-58
2021/04/18 08:29:15;;;;;;;15.00;8.69;;;;;;;;;;329846;161;857829;-58
2021/04/18 08:30:18;;;;;;;13.93;8.37;;;;;;;;;;323303;163;856369;-65
2021/04/18 08:31:22;;;;;;;13.98;8.69;;;;;;;;;;324999;163;863993;-57
2021/04/18 08:32:31;;;;;;;15.74;8.66;;;;;;;;;;323791;162;864312;-59
2021/04/18 08:33:40;;;;;;;14.79;8.28;;;;;;;;;;321783;164;864575;-58
2021/04/18 08:34:43;;;;;;;16.02;8.70;;;;;;;;;;318778;165;856358;-60
2021/04/18 08:35:45;;;;;;;14.57;8.97;;;;;;;;;;329931;161;856496;-59
2021/04/18 08:36:49;;;;;;;14.51;9.05;;;;;;;;;;328557;161;863901;-58
2021/04/18 08:38:09;;;;;;;12.73;8.47;;;;;;;;;;329462;161;858833;-58
2021/04/18 08:39:15;;;;;;;12.58;8.31;;;;;;;;;;327304;160;856203;-60
2021/04/18 08:40:18;;;;;;;14.86;9.38;;;;;;;;;;329109;161;864735;-63
2021/04/18 08:41:19;;;;;;;13.38;8.47;;;;;;;;;;323349;162;856885;-62
2021/04/18 08:42:25;;;;;;;10.34;7.84;;;;;;;;;;325539;163;864238;-61
2021/04/18 08:43:27;;;;;;;12.10;8.34;;;;;;;;;;328163;161;863914;-58
2021/04/18 08:44:39;;;;;;;11.69;8.16;;;;;;;;;;328300;161;856683;-58
2021/04/18 08:45:55;;;;;;;16.83;8.52;;;;;;;;;;329629;161;863826;-58
2021/04/18 08:46:57;;;;;;;11.98;7.66;;;;;;;;;;323567;163;856223;-58
2021/04/18 08:47:59;;;;;;;12.49;7.83;;;;;;;;;;321539;164;856746;-62
2021/04/18 08:49:00;;;;;;;11.36;7.81;;;;;;;;;;322262;164;856146;-57
2021/04/18 08:50:10;;;;;;;10.50;7.60;;;;;;;;;;328630;160;862320;-59
2021/04/18 08:51:12;;;;;;;12.07;8.13;;;;;;;;;;329117;161;863906;-58
2021/04/18 08:52:24;;;;;;;12.83;7.59;;;;;;;;;;329198;161;856819;-57
2021/04/18 08:53:25;;;;;;;10.63;7.07;;;;;;;;;;329389;160;864153;-58
2021/04/18 08:54:28;;;;;;;11.41;8.22;;;;;;;;;;330125;161;856521;-58
2021/04/18 08:55:30;;;;;;;14.14;8.01;;;;;;;;;;331078;161;863911;-59
2021/04/18 08:56:45;;;;;;;11.37;7.85;;;;;;;;;;329961;161;859763;-59
2021/04/18 08:57:47;;;;;;;12.18;7.89;;;;;;;;;;329071;161;862311;-58
2021/04/18 08:58:48;;;;;;;10.83;7.47;;;;;;;;;;330305;160;856311;-59
2021/04/18 08:59:55;;;;;;;13.23;7.62;;;;;;;;;;328786;161;863879;-59
2021/04/18 09:01:10;;;;;;;10.69;7.24;;;;;;;;;;327795;161;856466;-59
2021/04/18 09:02:32;;;;;;;11.92;7.62;;;;;;;;;;329175;161;857742;-60
2021/04/18 09:03:34;;;;;;;11.41;7.73;;;;;;;;;;325441;161;856970;-60
2021/04/18 09:04:37;;;;;;;12.09;7.45;;;;;;;;;;325431;162;856907;-60
2021/04/18 09:05:39;;;;;;;12.16;7.90;;;;;;;;;;326392;162;856983;-60
2021/04/18 09:06:43;;;;;;;11.40;7.79;;;;;;;;;;326984;162;856271;-66
2021/04/18 09:07:44;;;;;;;10.86;7.44;;;;;;;;;;326513;162;857484;-64
2021/04/18 09:08:52;;;;;;;9.89;7.33;;;;;;;;;;327909;162;856293;-66
2021/04/18 09:09:57;;;;;;;10.63;7.54;;;;;;;;;;325395;162;863930;-63
2021/04/18 09:11:04;;;;;;;13.52;8.00;;;;;;;;;;325633;162;856195;-62
2021/04/18 09:12:05;;;;;;;11.49;7.53;;;;;;;;;;326118;162;856869;-58
2021/04/18 09:13:09;;;;;;;10.46;7.82;;;;;;;;;;326073;161;856415;-58
2021/04/18 09:14:10;;;;;;;10.09;7.64;;;;;;;;;;334018;155;856331;-60
2021/04/18 09:15:12;;;;;;;12.54;7.22;;;;;;;;;;336983;159;856432;-61
2021/04/18 09:16:21;;;;;;;12.63;7.50;;;;;;;;;;338015;157;864093;-61
2021/04/18 09:17:26;;;;;;;12.74;8.12;;;;;;;;;;336714;160;856985;-62
2021/04/18 09:18:27;;;;;;;11.83;7.31;;;;;;;;;;340133;157;857729;-60